Time;durP1;ratioP1;P1;durP2;ratioP2;P2;SDS_P1;SDS_P2;PMS_P1;PMS_P2;Temp;Humidity;BMP_temperature;BMP_pressure;BME280_temperature;BME280_humidity;BME280_pressure;Samples;Min_cycle;Max_cycle;Signal;HPM_P1;HPM_P2
2022/03/25 00:02:57;;;;;;;17.20;14.35;;;;;;;5.69;100.00;99444.09;10246253;28;20051;-55
2022/03/25 00:08:01;;;;;;;16.65;13.48;;;;;;;5.55;100.00;99442.31;10249759;28;20039;-57
2022/03/25 00:13:06;;;;;;;17.60;13.60;;;;;;;5.41;100.00;99440.59;10247656;28;20079;-55
2022/03/25 00:18:10;;;;;;;18.83;14.88;;;;;;;5.34;100.00;99437.47;10250622;28;20180;-54
2022/03/25 00:23:13;;;;;;;18.30;15.25;;;;;;;5.31;100.00;99439.50;10248273;28;20074;-53
2022/03/25 00:28:17;;;;;;;17.38;15.55;;;;;;;5.27;100.00;99438.00;10245675;28;20058;-53
2022/03/25 00:33:21;;;;;;;16.88;15.15;;;;;;;5.22;100.00;99431.16;10243935;28;20054;-56
2022/03/25 00:38:24;;;;;;;21.60;15.63;;;;;;;5.14;100.00;99432.63;10250439;28;20106;-54
2022/03/25 00:43:28;;;;;;;19.65;16.38;;;;;;;5.04;100.00;99432.34;10249412;28;20051;-55
2022/03/25 00:48:32;;;;;;;18.23;16.23;;;;;;;4.92;100.00;99428.69;10249009;28;20043;-52
2022/03/25 00:53:36;;;;;;;19.02;15.95;;;;;;;4.87;100.00;99425.44;10243411;29;20043;-54
2022/03/25 00:58:39;;;;;;;18.25;15.90;;;;;;;4.84;100.00;99423.84;10247213;28;20044;-55
2022/03/25 01:03:43;;;;;;;17.65;15.77;;;;;;;4.80;100.00;99425.00;10243659;28;20103;-56
2022/03/25 01:08:46;;;;;;;17.92;16.13;;;;;;;4.76;100.00;99426.16;10235188;28;20051;-54
2022/03/25 01:13:49;;;;;;;19.10;16.20;;;;;;;4.73;100.00;99421.03;10254955;28;20040;-55
2022/03/25 01:18:54;;;;;;;17.95;16.10;;;;;;;4.69;100.00;99415.03;10248856;28;20111;-53
2022/03/25 01:23:57;;;;;;;17.75;15.85;;;;;;;4.66;100.00;99422.34;10244407;28;20608;-56
2022/03/25 01:29:00;;;;;;;16.48;14.85;;;;;;;4.61;100.00;99418.19;10245411;28;20047;-55
2022/03/25 01:34:05;;;;;;;16.80;15.20;;;;;;;4.48;100.00;99420.75;10228613;28;20047;-54
2022/03/25 01:39:08;;;;;;;17.23;15.52;;;;;;;4.36;100.00;99415.38;10233149;28;20054;-50
2022/03/25 01:44:11;;;;;;;16.73;15.00;;;;;;;4.26;100.00;99413.28;10252180;28;20050;-50
2022/03/25 01:49:17;;;;;;;17.20;15.30;;;;;;;4.16;100.00;99409.47;10226388;28;20053;-53
2022/03/25 01:54:23;;;;;;;17.85;15.75;;;;;;;4.05;100.00;99418.13;10244562;28;20042;-52
2022/03/25 01:59:27;;;;;;;17.15;15.48;;;;;;;3.95;100.00;99412.50;10248010;28;20110;-52
2022/03/25 02:04:32;;;;;;;17.88;15.70;;;;;;;3.85;100.00;99406.91;10261819;28;20129;-53
2022/03/25 02:09:35;;;;;;;19.98;16.77;;;;;;;3.78;100.00;99415.38;10250167;28;20059;-49
2022/03/25 02:14:42;;;;;;;23.05;16.92;;;;;;;3.67;100.00;99408.88;10234444;28;20113;-50
2022/03/25 02:19:48;;;;;;;19.15;17.23;;;;;;;3.54;100.00;99410.56;10248901;28;20086;-51
2022/03/25 02:24:54;;;;;;;20.10;17.50;;;;;;;3.39;100.00;99412.34;10229026;28;20047;-50
2022/03/25 02:29:59;;;;;;;20.45;17.92;;;;;;;3.32;100.00;99408.31;10245718;28;20047;-50
2022/03/25 02:35:03;;;;;;;18.48;16.58;;;;;;;3.28;100.00;99415.63;10223473;28;20496;-53
2022/03/25 02:40:09;;;;;;;18.70;16.83;;;;;;;3.26;100.00;99419.34;10242629;28;20046;-55
2022/03/25 02:45:12;;;;;;;19.05;17.15;;;;;;;3.24;100.00;99419.41;10241119;28;20973;-51
2022/03/25 02:50:15;;;;;;;18.63;16.73;;;;;;;3.23;100.00;99420.38;10233197;28;20047;-54
2022/03/25 02:55:19;;;;;;;20.20;16.60;;;;;;;3.19;100.00;99418.84;10224249;28;20055;-55
2022/03/25 03:00:25;;;;;;;18.55;16.65;;;;;;;3.17;100.00;99426.94;10255645;28;20051;-50
2022/03/25 03:05:29;;;;;;;18.52;16.73;;;;;;;3.14;100.00;99420.91;10201322;29;20071;-53
2022/03/25 03:10:33;;;;;;;20.65;17.50;;;;;;;3.11;100.00;99427.28;10208711;29;20054;-51
2022/03/25 03:15:37;;;;;;;20.92;16.38;;;;;;;3.07;100.00;99425.72;10222202;29;20043;-49
2022/03/25 03:20:40;;;;;;;21.40;17.40;;;;;;;3.01;100.00;99421.63;10194897;29;20054;-51
2022/03/25 03:25:45;;;;;;;17.45;15.65;;;;;;;2.97;100.00;99428.09;10219224;29;20040;-49
2022/03/25 03:30:48;;;;;;;18.98;17.02;;;;;;;2.91;100.00;99426.63;10220346;29;20058;-53
2022/03/25 03:35:51;;;;;;;19.67;17.70;;;;;;;2.85;100.00;99426.97;10217605;29;20118;-52
2022/03/25 03:40:55;;;;;;;19.00;16.40;;;;;;;2.82;100.00;99426.28;10217687;28;20841;-52
2022/03/25 03:45:58;;;;;;;19.45;16.90;;;;;;;2.71;100.00;99430.41;10215888;29;20551;-51
2022/03/25 03:51:02;;;;;;;19.70;17.60;;;;;;;2.65;100.00;99424.56;10218121;28;20135;-56
2022/03/25 03:56:07;;;;;;;20.13;16.35;;;;;;;2.57;100.00;99427.66;10193004;29;20051;-56
2022/03/25 04:01:10;;;;;;;19.92;17.10;;;;;;;2.50;100.00;99428.97;10213913;28;20486;-53
2022/03/25 04:06:13;;;;;;;19.92;17.92;;;;;;;2.38;100.00;99434.00;10261063;28;20851;-53
2022/03/25 04:11:18;;;;;;;20.33;18.25;;;;;;;2.29;100.00;99431.88;10252050;28;20043;-57
2022/03/25 04:16:22;;;;;;;20.58;18.48;;;;;;;2.18;100.00;99426.25;10261750;28;20042;-57
2022/03/25 04:21:26;;;;;;;21.70;18.05;;;;;;;2.11;100.00;99434.56;10236711;28;20047;-55
2022/03/25 04:26:32;;;;;;;19.88;17.77;;;;;;;2.01;100.00;99430.69;10252599;28;20520;-58
2022/03/25 04:31:35;;;;;;;20.20;18.10;;;;;;;1.96;100.00;99443.34;10250658;28;20403;-56
2022/03/25 04:36:39;;;;;;;20.77;17.35;;;;;;;1.87;100.00;99443.84;10252525;28;20047;-58
2022/03/25 04:41:43;;;;;;;20.70;18.38;;;;;;;1.80;100.00;99454.81;10254483;28;20065;-53
2022/03/25 04:46:46;;;;;;;20.75;18.55;;;;;;;1.75;100.00;99462.13;10250416;28;20512;-53
2022/03/25 04:51:55;;;;;;;20.73;18.73;;;;;;;1.70;100.00;99456.22;10254282;28;20047;-54
2022/03/25 04:56:59;;;;;;;21.25;18.85;;;;;;;1.66;100.00;99463.47;10257561;28;20131;-54
2022/03/25 05:02:03;;;;;;;21.45;18.77;;;;;;;1.63;100.00;99460.13;10240099;28;20067;-53
2022/03/25 05:07:06;;;;;;;20.13;17.92;;;;;;;1.59;100.00;99471.84;10204974;29;20118;-50
2022/03/25 05:12:12;;;;;;;22.85;18.75;;;;;;;1.59;100.00;99474.50;10203550;29;20162;-54
2022/03/25 05:17:15;;;;;;;20.92;18.52;;;;;;;1.57;100.00;99482.53;10204498;29;20472;-52
2022/03/25 05:22:18;;;;;;;19.60;17.38;;;;;;;1.56;100.00;99493.25;10202987;29;20126;-57
2022/03/25 05:27:23;;;;;;;20.88;18.65;;;;;;;1.47;100.00;99492.75;10203717;29;20400;-54
2022/03/25 05:32:27;;;;;;;22.02;19.10;;;;;;;1.41;100.00;99501.03;10205224;29;20075;-53
2022/03/25 05:37:30;;;;;;;22.38;20.00;;;;;;;1.33;100.00;99504.06;10203557;29;20432;-54
2022/03/25 05:42:35;;;;;;;25.05;20.75;;;;;;;1.30;100.00;99506.03;10202241;29;20162;-54
2022/03/25 05:47:39;;;;;;;25.67;20.48;;;;;;;1.25;100.00;99511.56;10186848;29;20044;-55
2022/03/25 05:52:43;;;;;;;23.88;21.38;;;;;;;1.25;100.00;99511.56;10201123;29;20126;-56
2022/03/25 05:57:47;;;;;;;25.23;21.58;;;;;;;1.26;100.00;99517.72;10202196;29;20050;-51
2022/03/25 06:02:50;;;;;;;23.48;20.95;;;;;;;1.28;100.00;99518.50;10222985;28;20065;-54
2022/03/25 06:07:54;;;;;;;23.77;21.25;;;;;;;1.31;100.00;99526.34;10245776;28;20055;-53
2022/03/25 06:12:58;;;;;;;26.17;21.73;;;;;;;1.33;100.00;99520.00;10242728;28;20069;-56
2022/03/25 06:18:02;;;;;;;23.10;20.65;;;;;;;1.38;100.00;99525.97;10246867;28;20047;-55
2022/03/25 06:23:05;;;;;;;24.15;21.58;;;;;;;1.44;100.00;99526.56;10249778;28;20495;-55
2022/03/25 06:28:10;;;;;;;22.80;20.50;;;;;;;1.49;100.00;99529.88;10255879;28;20047;-53
2022/03/25 06:33:13;;;;;;;22.35;19.80;;;;;;;1.59;100.00;99530.28;10252384;28;20059;-63
2022/03/25 06:38:16;;;;;;;20.35;18.35;;;;;;;1.67;100.00;99523.63;10248861;28;20051;-53
2022/03/25 06:43:20;;;;;;;20.98;18.83;;;;;;;1.75;100.00;99525.91;10241808;28;20075;-56
2022/03/25 06:48:23;;;;;;;20.25;18.25;;;;;;;1.84;100.00;99536.06;10241052;28;20047;-53
2022/03/25 06:53:27;;;;;;;20.92;18.77;;;;;;;1.93;100.00;99539.22;10247456;28;20053;-53
2022/03/25 06:58:34;;;;;;;22.00;18.83;;;;;;;2.09;100.00;99541.94;10236367;28;20445;-56
2022/03/25 07:04:29;;;;;;;20.92;18.73;;;;;;;2.23;100.00;99549.19;10222758;28;20591;-54
2022/03/25 07:09:32;;;;;;;20.52;18.27;;;;;;;2.31;100.00;99546.97;10241131;28;20055;-52
2022/03/25 07:14:38;;;;;;;18.45;16.30;;;;;;;2.49;100.00;99554.94;10238324;28;20039;-55
2022/03/25 07:19:43;;;;;;;19.45;16.50;;;;;;;2.65;100.00;99554.94;10242980;28;20039;-53
2022/03/25 07:24:46;;;;;;;20.67;17.23;;;;;;;2.78;100.00;99548.88;10247894;28;20055;-53
2022/03/25 07:29:51;;;;;;;18.83;16.92;;;;;;;2.92;100.00;99555.25;10243967;28;20512;-54
2022/03/25 07:34:54;;;;;;;18.70;16.75;;;;;;;3.07;100.00;99556.19;10258037;28;20055;-55
2022/03/25 07:39:57;;;;;;;20.95;16.85;;;;;;;3.21;100.00;99560.75;10234825;28;20039;-55
2022/03/25 07:45:02;;;;;;;18.10;16.30;;;;;;;3.40;100.00;99560.59;10255992;28;20043;-53
2022/03/25 07:50:09;;;;;;;18.80;16.75;;;;;;;3.59;100.00;99570.19;10266394;28;20116;-54
2022/03/25 07:55:15;;;;;;;18.50;16.48;;;;;;;3.76;100.00;99562.06;10264243;28;20074;-55
2022/03/25 08:00:20;;;;;;;18.35;16.25;;;;;;;4.00;100.00;99565.09;10259595;28;20050;-56
2022/03/25 08:05:24;;;;;;;19.77;15.88;;;;;;;4.30;100.00;99566.00;10251129;28;20056;-56
2022/03/25 08:10:28;;;;;;;18.77;16.58;;;;;;;4.56;100.00;99576.91;10250200;28;20045;-54
2022/03/25 08:15:33;;;;;;;17.25;15.48;;;;;;;4.81;100.00;99575.38;10253561;28;20051;-55
2022/03/25 08:20:39;;;;;;;21.00;15.75;;;;;;;5.07;100.00;99579.06;10248300;28;20043;-58
2022/03/25 08:31:03;;;;;;;17.30;13.60;;;;;;;5.57;100.00;99578.59;10260139;28;20150;-55
2022/03/25 08:36:07;;;;;;;20.30;13.43;;;;;;;5.80;100.00;99583.25;10238705;28;20491;-58
2022/03/25 08:41:11;;;;;;;16.17;12.98;;;;;;;6.08;100.00;99588.59;10249473;28;20071;-56
2022/03/25 08:46:16;;;;;;;15.75;13.95;;;;;;;6.31;100.00;99597.72;10249279;28;20059;-56
2022/03/25 08:51:19;;;;;;;16.83;11.43;;;;;;;6.47;100.00;99593.06;10243455;28;20135;-55
2022/03/25 08:56:24;;;;;;;13.45;12.05;;;;;;;6.73;100.00;99587.69;10247381;28;20482;-55
2022/03/25 09:01:28;;;;;;;16.25;13.07;;;;;;;7.03;100.00;99591.84;10250357;28;20329;-61
2022/03/25 09:06:32;;;;;;;14.55;12.05;;;;;;;7.19;100.00;99591.59;10242090;28;20071;-58
2022/03/25 09:11:42;;;;;;;16.80;12.68;;;;;;;7.44;100.00;99599.69;10246537;28;20567;-61
2022/03/25 09:16:47;;;;;;;15.95;12.82;;;;;;;7.69;100.00;99588.88;10248055;28;20035;-54
2022/03/25 09:21:50;;;;;;;13.70;12.20;;;;;;;7.92;100.00;99593.47;10253319;28;20520;-63
2022/03/25 09:26:54;;;;;;;14.65;12.73;;;;;;;8.14;100.00;99598.91;10261544;28;20053;-60
2022/03/25 09:31:58;;;;;;;16.48;11.85;;;;;;;8.45;100.00;99599.28;10243721;28;20051;-62
2022/03/25 09:37:21;;;;;;;17.75;12.70;;;;;;;8.64;100.00;99606.75;10247997;28;20047;-57
2022/03/25 09:42:25;;;;;;;12.88;10.27;;;;;;;8.94;100.00;99607.16;10251343;28;20416;-57
2022/03/25 09:47:31;;;;;;;14.75;11.07;;;;;;;9.23;100.00;99607.53;10253203;28;20540;-55
2022/03/25 09:52:36;;;;;;;14.20;10.05;;;;;;;9.58;97.24;99599.44;10257504;28;20411;-57
2022/03/25 09:58:00;;;;;;;12.25;10.13;;;;;;;9.77;96.60;99605.00;10235832;28;20400;-55
2022/03/25 10:03:05;;;;;;;12.75;8.32;;;;;;;10.03;77.94;99601.97;10252810;28;21153;-52
2022/03/25 10:08:28;;;;;;;10.07;8.15;;;;;;;10.34;73.17;99599.38;10261184;28;20043;-53
2022/03/25 10:13:32;;;;;;;10.52;8.00;;;;;;;10.57;69.20;99602.84;10253041;28;20047;-54
2022/03/25 10:18:53;;;;;;;11.35;8.50;;;;;;;10.79;66.15;99598.28;10258810;28;20123;-61
2022/03/25 10:23:56;;;;;;;13.68;8.00;;;;;;;10.98;62.77;99591.25;10294011;28;20115;-57
2022/03/25 10:29:00;;;;;;;13.48;8.90;;;;;;;11.19;62.87;99600.13;10304040;28;20046;-60
2022/03/25 10:34:05;;;;;;;11.60;8.18;;;;;;;11.39;65.15;99600.22;10287715;28;20039;-59
2022/03/25 10:39:16;;;;;;;11.75;8.02;;;;;;;11.63;61.10;99607.94;10286810;28;20397;-56
2022/03/25 10:44:19;;;;;;;13.38;8.13;;;;;;;11.77;59.37;99605.84;10276871;28;20055;-56
2022/03/25 10:49:24;;;;;;;13.23;8.80;;;;;;;11.93;57.53;99603.44;10283438;28;20046;-57
2022/03/25 10:54:30;;;;;;;13.57;8.93;;;;;;;12.04;59.15;99607.03;10272800;28;20400;-62
2022/03/25 10:59:35;;;;;;;15.82;9.15;;;;;;;12.22;59.20;99599.91;10258948;28;20115;-60
2022/03/25 11:04:42;;;;;;;12.57;9.00;;;;;;;12.35;58.72;99598.78;10265656;28;20055;-59
2022/03/25 11:09:47;;;;;;;13.02;9.27;;;;;;;12.48;57.92;99583.94;10253063;28;20054;-60
2022/03/25 11:14:50;;;;;;;14.77;8.93;;;;;;;12.61;57.13;99593.59;10245970;28;20063;-59
2022/03/25 11:20:03;;;;;;;15.88;8.65;;;;;;;12.75;56.77;99595.84;10243530;28;20031;-56
2022/03/25 11:25:10;;;;;;;11.98;8.27;;;;;;;12.87;57.00;99592.97;10242225;28;20038;-60
2022/03/25 11:30:14;;;;;;;12.48;7.63;;;;;;;13.03;54.60;99586.94;10242518;28;20054;-59
2022/03/25 11:35:24;;;;;;;10.02;7.38;;;;;;;13.16;50.16;99581.19;10245094;28;20042;-57
2022/03/25 11:40:29;;;;;;;10.98;6.90;;;;;;;13.34;51.04;99589.38;10248077;28;20464;-59
2022/03/25 11:45:35;;;;;;;8.07;6.53;;;;;;;13.49;48.59;99582.47;10247778;28;20043;-58
2022/03/25 11:50:41;;;;;;;8.15;6.20;;;;;;;13.59;47.46;99578.84;10256968;28;20051;-60
2022/03/25 11:55:54;;;;;;;10.85;6.55;;;;;;;13.81;46.88;99573.00;10254900;28;20066;-59
2022/03/25 12:01:02;;;;;;;8.35;6.30;;;;;;;13.88;47.64;99575.94;10262737;28;20057;-58
2022/03/25 12:06:07;;;;;;;10.38;6.43;;;;;;;13.84;46.53;99567.25;10246130;28;20039;-58
2022/03/25 12:11:11;;;;;;;10.80;6.43;;;;;;;13.98;46.08;99571.31;10238528;28;20522;-60
2022/03/25 12:16:52;;;;;;;10.55;6.60;;;;;;;14.09;43.11;99562.06;10245340;28;20142;-54
2022/03/25 12:21:58;;;;;;;9.00;6.45;;;;;;;14.10;44.41;99552.94;10249231;28;20043;-58
2022/03/25 12:27:04;;;;;;;9.32;7.13;;;;;;;14.24;46.27;99547.97;10254430;28;20039;-62
2022/03/25 12:32:09;;;;;;;11.27;6.60;;;;;;;14.48;45.84;99540.03;10252371;28;20042;-56
2022/03/25 12:37:25;;;;;;;9.02;6.30;;;;;;;14.71;45.44;99549.50;10257627;28;20043;-55
2022/03/25 12:42:29;;;;;;;10.52;6.28;;;;;;;14.95;44.28;99540.66;10249738;28;20050;-55
2022/03/25 12:47:33;;;;;;;9.07;6.40;;;;;;;15.24;44.84;99542.13;10248188;28;20067;-56
2022/03/25 12:52:38;;;;;;;8.18;6.57;;;;;;;15.30;43.82;99535.19;10245972;28;20051;-57
2022/03/25 12:57:41;;;;;;;7.45;6.40;;;;;;;15.57;42.87;99534.94;10259392;28;20045;-57
2022/03/25 13:02:47;;;;;;;8.45;6.55;;;;;;;15.50;41.32;99530.31;10247826;28;20047;-53
2022/03/25 13:07:56;;;;;;;12.20;6.28;;;;;;;15.34;42.01;99525.72;10250911;28;20222;-57
2022/03/25 13:13:01;;;;;;;8.88;6.40;;;;;;;15.62;39.85;99522.72;10250397;28;20047;-62
2022/03/25 13:18:05;;;;;;;10.40;6.50;;;;;;;15.45;39.55;99525.41;10246647;28;20054;-56
2022/03/25 13:23:12;;;;;;;9.32;6.22;;;;;;;15.86;39.09;99521.94;10251623;28;20047;-56
2022/03/25 13:28:23;;;;;;;9.40;6.18;;;;;;;15.88;39.56;99519.91;10251926;28;20036;-57
2022/03/25 13:33:47;;;;;;;7.15;5.72;;;;;;;15.95;38.26;99523.63;10244634;28;20055;-60
2022/03/25 13:38:52;;;;;;;11.70;6.60;;;;;;;16.18;38.38;99514.78;10251636;28;20487;-62
2022/03/25 13:44:04;;;;;;;10.73;6.20;;;;;;;16.46;38.70;99509.00;10243455;28;20493;-59
2022/03/25 13:49:09;;;;;;;9.73;6.45;;;;;;;16.51;37.37;99513.91;10249038;28;20507;-60
2022/03/25 13:54:16;;;;;;;9.43;6.15;;;;;;;16.58;36.31;99499.44;10246772;28;20078;-60
2022/03/25 13:59:25;;;;;;;11.05;6.13;;;;;;;16.62;36.46;99499.94;10242508;28;20488;-61
2022/03/25 14:04:31;;;;;;;9.70;6.03;;;;;;;16.55;35.90;99507.13;10249904;28;20070;-58
2022/03/25 14:09:38;;;;;;;10.98;6.22;;;;;;;16.82;35.80;99500.41;10245473;28;20042;-57
2022/03/25 14:14:43;;;;;;;11.75;7.10;;;;;;;16.89;36.34;99498.66;10223717;28;20055;-54
2022/03/25 14:19:59;;;;;;;8.93;6.55;;;;;;;17.15;36.06;99488.56;10257975;28;20051;-58
2022/03/25 14:25:04;;;;;;;8.82;6.40;;;;;;;17.38;35.61;99488.59;10243895;28;20082;-57
2022/03/25 14:30:08;;;;;;;10.90;6.30;;;;;;;17.65;36.11;99484.50;10248513;28;20046;-57
2022/03/25 14:35:12;;;;;;;10.05;6.63;;;;;;;17.84;36.00;99482.34;10246668;28;20523;-61
2022/03/25 14:40:17;;;;;;;11.13;6.40;;;;;;;16.94;35.40;99488.13;10245469;28;20039;-54
2022/03/25 14:45:20;;;;;;;10.90;6.15;;;;;;;16.72;36.50;99483.44;10245020;28;20047;-52
2022/03/25 14:50:24;;;;;;;9.45;6.00;;;;;;;16.75;35.26;99469.47;10246800;28;20039;-57
2022/03/25 14:55:29;;;;;;;10.25;5.85;;;;;;;17.18;36.06;99472.72;10243773;28;20049;-54
2022/03/25 15:00:32;;;;;;;12.05;6.20;;;;;;;17.48;34.99;99467.41;10233885;28;20579;-61
2022/03/25 15:05:37;;;;;;;11.35;5.30;;;;;;;17.34;35.23;99470.94;10241141;28;20504;-54
2022/03/25 15:10:42;;;;;;;6.35;5.13;;;;;;;17.58;34.15;99471.81;10243744;28;20142;-56
2022/03/25 15:15:45;;;;;;;9.55;5.38;;;;;;;17.54;34.49;99471.28;10249397;28;20559;-59
2022/03/25 15:20:48;;;;;;;8.35;5.10;;;;;;;16.97;33.95;99475.22;10243990;28;20074;-64
2022/03/25 15:25:53;;;;;;;9.45;5.10;;;;;;;17.45;33.97;99472.38;10247775;28;20504;-62
2022/03/25 15:36:18;;;;;;;7.53;4.72;;;;;;;17.31;34.73;99463.13;10245144;28;20085;-63
2022/03/25 15:41:43;;;;;;;7.97;4.45;;;;;;;17.42;33.50;99459.97;10251666;28;20403;-63
2022/03/25 15:46:46;;;;;;;7.60;4.10;;;;;;;17.60;34.48;99453.38;10245361;28;20075;-62
2022/03/25 15:51:49;;;;;;;8.65;4.38;;;;;;;17.70;33.61;99448.53;10244060;28;20118;-62
2022/03/25 15:57:10;;;;;;;5.53;3.83;;;;;;;17.70;33.88;99453.97;10238373;29;20043;-60
2022/03/25 16:02:13;;;;;;;7.97;4.30;;;;;;;17.70;34.24;99445.78;10248443;28;20066;-63
2022/03/25 16:07:17;;;;;;;6.25;4.47;;;;;;;17.76;34.86;99453.25;10242687;28;20047;-62
2022/03/25 16:12:21;;;;;;;6.50;4.35;;;;;;;17.80;34.50;99451.88;10249197;28;20055;-62
2022/03/25 16:17:25;;;;;;;7.88;4.40;;;;;;;17.52;34.13;99463.31;10254829;28;20051;-63
2022/03/25 16:22:28;;;;;;;7.85;4.45;;;;;;;17.05;35.02;99456.94;10262514;28;20047;-63
2022/03/25 16:27:32;;;;;;;9.40;4.57;;;;;;;17.07;35.36;99451.34;10262640;28;20122;-63
2022/03/25 16:32:38;;;;;;;7.00;4.25;;;;;;;16.77;36.35;99453.81;10250807;28;20043;-62
2022/03/25 16:37:45;;;;;;;8.07;4.53;;;;;;;16.75;36.53;99456.72;10252146;28;20042;-62
2022/03/25 16:42:50;;;;;;;6.57;4.55;;;;;;;16.82;36.54;99456.03;10260056;28;20635;-62
2022/03/25 16:47:54;;;;;;;7.43;4.53;;;;;;;16.63;36.87;99460.84;10265257;28;20436;-62
2022/03/25 16:52:57;;;;;;;7.50;4.68;;;;;;;16.59;36.92;99454.03;10255793;28;20567;-58
2022/03/25 16:58:01;;;;;;;5.43;4.50;;;;;;;16.18;37.71;99450.41;10247623;28;20528;-58
2022/03/25 17:03:05;;;;;;;5.40;4.47;;;;;;;15.92;38.23;99466.06;10242063;28;20047;-58
2022/03/25 17:08:09;;;;;;;8.85;4.75;;;;;;;15.56;38.79;99456.34;10234717;28;20059;-60
2022/03/25 17:13:15;;;;;;;9.07;4.82;;;;;;;15.21;38.75;99461.03;10230839;29;20077;-58
2022/03/25 17:18:18;;;;;;;9.15;5.18;;;;;;;14.83;39.71;99460.56;10231569;28;20063;-57
2022/03/25 17:23:21;;;;;;;8.50;5.28;;;;;;;14.51;40.29;99467.50;10233292;29;20427;-57
2022/03/25 17:28:26;;;;;;;9.07;5.40;;;;;;;14.15;40.99;99461.19;10236848;28;20771;-58
2022/03/25 17:33:31;;;;;;;8.15;5.50;;;;;;;13.76;41.68;99466.13;10236787;29;20046;-59
2022/03/25 17:38:37;;;;;;;10.10;5.53;;;;;;;13.49;42.35;99465.22;10234853;28;20039;-58
2022/03/25 17:43:41;;;;;;;11.80;5.88;;;;;;;13.25;43.26;99470.19;10229869;29;20086;-59
2022/03/25 17:48:45;;;;;;;8.00;6.13;;;;;;;13.04;43.91;99467.78;10226475;29;20035;-60
2022/03/25 17:53:49;;;;;;;10.68;6.15;;;;;;;12.85;44.58;99466.03;10211930;29;20051;-59
2022/03/25 17:58:53;;;;;;;10.25;6.53;;;;;;;12.70;44.97;99473.75;10231602;29;20599;-59
2022/03/25 18:03:57;;;;;;;10.43;6.65;;;;;;;12.54;45.41;99482.50;10219989;28;20061;-58
2022/03/25 18:09:00;;;;;;;13.50;6.93;;;;;;;12.40;46.04;99491.09;10217064;29;20428;-59
2022/03/25 18:14:05;;;;;;;9.57;6.63;;;;;;;12.26;46.65;99493.25;10208572;29;20608;-59
2022/03/25 18:19:08;;;;;;;10.35;7.38;;;;;;;12.10;47.37;99503.81;10214673;29;20043;-58
2022/03/25 18:24:11;;;;;;;8.73;6.45;;;;;;;11.97;47.74;99514.88;10213652;29;20039;-57
2022/03/25 18:29:15;;;;;;;9.80;6.78;;;;;;;11.84;48.21;99513.34;10212129;29;20054;-57
2022/03/25 18:34:19;;;;;;;11.40;6.47;;;;;;;11.75;48.93;99516.03;10223142;28;20047;-58
2022/03/25 18:39:22;;;;;;;11.52;6.50;;;;;;;11.68;49.21;99511.22;10225761;28;20043;-55
2022/03/25 18:44:26;;;;;;;8.93;6.80;;;;;;;11.58;49.65;99507.66;10225059;29;20035;-58
2022/03/25 18:49:29;;;;;;;11.32;7.50;;;;;;;11.52;50.04;99508.19;10204698;29;20044;-60
2022/03/25 18:54:34;;;;;;;9.43;7.35;;;;;;;11.42;50.61;99510.88;10200675;29;20122;-60
2022/03/25 18:59:39;;;;;;;11.98;6.97;;;;;;;11.27;52.06;99518.53;10211043;29;20510;-61
2022/03/25 19:04:44;;;;;;;12.52;7.63;;;;;;;11.04;52.43;99518.75;10223737;28;20427;-63
2022/03/25 19:09:47;;;;;;;9.88;7.85;;;;;;;10.84;54.10;99528.59;10255230;28;20035;-63
2022/03/25 19:14:51;;;;;;;12.35;7.53;;;;;;;10.79;54.95;99523.63;10248296;28;20129;-59
2022/03/25 19:19:55;;;;;;;10.23;7.50;;;;;;;10.56;55.48;99535.56;10258041;28;20539;-62
2022/03/25 19:24:58;;;;;;;8.65;7.57;;;;;;;10.32;56.76;99545.63;10251346;28;20081;-62
2022/03/25 19:30:03;;;;;;;11.93;8.35;;;;;;;10.01;59.26;99531.25;10247631;28;20081;-61
2022/03/25 19:35:07;;;;;;;14.43;8.27;;;;;;;9.79;59.46;99533.06;10248898;28;20122;-59
2022/03/25 19:40:14;;;;;;;10.52;6.95;;;;;;;9.64;60.41;99528.94;10254193;28;20496;-58
2022/03/25 19:45:19;;;;;;;10.40;7.28;;;;;;;9.48;60.69;99532.06;10255152;28;20043;-62
2022/03/25 19:50:23;;;;;;;13.20;7.78;;;;;;;9.38;61.48;99540.03;10252812;28;20044;-61
2022/03/25 19:55:27;;;;;;;13.20;8.32;;;;;;;9.24;64.16;99544.69;10258600;28;20574;-61
2022/03/25 20:00:31;;;;;;;10.75;8.20;;;;;;;9.10;65.86;99539.59;10258559;28;20046;-62
2022/03/25 20:05:34;;;;;;;9.63;7.70;;;;;;;9.00;65.66;99542.16;10247558;29;20055;-62
2022/03/25 20:10:38;;;;;;;10.85;8.27;;;;;;;8.87;69.09;99550.38;10231621;29;20057;-62
2022/03/25 20:15:43;;;;;;;12.35;7.68;;;;;;;8.70;72.49;99553.53;10231723;29;20151;-62
2022/03/25 20:20:46;;;;;;;10.85;7.82;;;;;;;8.61;72.58;99557.78;10249738;28;20043;-59
2022/03/25 20:25:49;;;;;;;10.77;7.45;;;;;;;8.53;71.37;99562.94;10245925;29;20039;-59
2022/03/25 20:30:54;;;;;;;15.32;7.55;;;;;;;8.47;72.44;99573.16;10248380;28;20407;-60
2022/03/25 20:35:57;;;;;;;12.02;7.78;;;;;;;8.44;72.48;99572.50;10228971;29;20074;-62
2022/03/25 20:41:00;;;;;;;11.00;7.80;;;;;;;8.39;75.59;99566.66;10249031;28;20133;-65
2022/03/25 20:46:05;;;;;;;12.23;8.00;;;;;;;8.32;76.90;99569.81;10249206;29;20098;-62
2022/03/25 20:51:10;;;;;;;12.10;8.45;;;;;;;8.27;78.07;99568.44;10246078;28;20070;-61
2022/03/25 20:56:13;;;;;;;14.27;9.35;;;;;;;8.02;84.26;99573.00;10245078;28;20053;-55
2022/03/25 21:01:17;;;;;;;13.60;9.15;;;;;;;7.91;86.72;99575.66;10246943;28;20055;-59
2022/03/25 21:06:21;;;;;;;10.80;9.07;;;;;;;7.81;88.35;99578.19;10252344;28;20467;-61
2022/03/25 21:11:24;;;;;;;12.90;8.68;;;;;;;7.70;88.29;99578.97;10245610;28;20425;-60
2022/03/25 21:16:30;;;;;;;10.25;9.05;;;;;;;7.62;91.15;99579.53;10252209;28;20415;-60
2022/03/25 21:21:33;;;;;;;12.45;9.13;;;;;;;7.59;90.52;99586.97;10249987;28;20094;-61
2022/03/25 21:26:37;;;;;;;11.52;9.02;;;;;;;7.49;94.81;99587.66;10247424;28;20055;-62
2022/03/25 21:31:45;;;;;;;11.48;8.90;;;;;;;7.42;94.33;99580.16;10250729;28;20050;-60
2022/03/25 21:36:48;;;;;;;13.60;8.88;;;;;;;7.31;97.15;99588.97;10244723;28;20043;-62
2022/03/25 21:41:52;;;;;;;11.32;9.25;;;;;;;7.23;96.74;99597.59;10250324;28;20039;-58
2022/03/25 21:46:56;;;;;;;13.07;9.00;;;;;;;7.20;96.43;99595.13;10243796;28;20130;-57
2022/03/25 21:52:00;;;;;;;16.63;9.13;;;;;;;7.18;98.16;99597.91;10255295;28;20130;-58
2022/03/25 21:57:04;;;;;;;11.77;9.15;;;;;;;7.15;96.57;99590.13;10325430;23;20057;-59
2022/03/25 22:02:10;;;;;;;10.82;8.20;;;;;;;7.11;97.28;99596.66;10317994;28;20074;-56
2022/03/25 22:07:13;;;;;;;13.20;8.70;;;;;;;7.04;99.15;99598.91;10336741;28;20426;-53
2022/03/25 22:12:17;;;;;;;11.57;8.85;;;;;;;6.96;99.96;99600.41;10326616;28;20038;-57
2022/03/25 22:17:21;;;;;;;11.85;8.32;;;;;;;6.87;100.00;99602.78;10326955;28;20073;-56
2022/03/25 22:22:25;;;;;;;12.40;8.07;;;;;;;6.74;100.00;99605.50;10325599;28;20118;-54
2022/03/25 22:27:28;;;;;;;11.27;8.27;;;;;;;6.65;100.00;99607.94;10327694;28;20101;-61
2022/03/25 22:32:32;;;;;;;11.05;8.15;;;;;;;6.56;100.00;99606.75;10337753;28;20046;-56
2022/03/25 22:37:35;;;;;;;10.10;8.05;;;;;;;6.47;100.00;99602.88;10331695;28;20149;-57
2022/03/25 22:42:38;;;;;;;12.48;8.48;;;;;;;6.39;100.00;99603.44;10322670;28;20518;-58
2022/03/25 22:47:43;;;;;;;10.95;8.27;;;;;;;6.30;100.00;99604.03;10327839;28;20079;-53
2022/03/25 22:52:46;;;;;;;10.80;8.75;;;;;;;6.24;100.00;99607.16;10335185;28;20462;-56
2022/03/25 22:57:49;;;;;;;11.77;8.48;;;;;;;6.12;100.00;99609.69;10338239;28;20491;-55
2022/03/25 23:02:54;;;;;;;9.52;8.32;;;;;;;6.06;100.00;99601.22;10352543;28;20043;-56
2022/03/25 23:07:57;;;;;;;12.45;8.40;;;;;;;5.94;100.00;99610.91;10334542;28;20058;-53
2022/03/25 23:13:00;;;;;;;11.32;8.85;;;;;;;5.87;100.00;99605.13;10324380;28;20104;-59
2022/03/25 23:18:05;;;;;;;10.85;8.48;;;;;;;5.83;100.00;99614.28;10325910;28;20101;-55
2022/03/25 23:23:10;;;;;;;12.13;8.57;;;;;;;5.80;100.00;99615.34;10324779;28;20061;-52
2022/03/25 23:28:13;;;;;;;13.05;9.20;;;;;;;5.75;100.00;99620.13;10324004;28;20122;-57
2022/03/25 23:33:17;;;;;;;10.55;8.70;;;;;;;5.70;100.00;99620.44;10319397;28;20498;-56